South Reno (Wolf Run), Nevada Weather observations

Data are for observation ending at time listed.
 Day   Time    Ave.   Ave.  Ave.  Vector   Max.   Stn.    Total    Solar   Ave.  
  of    of     Air    Rel.  Wind   Wind    Wind   Baro.  Precip.   Rad.    Soil  
Year   Day     Temp.  Hum.  Speed  Dir.    Gust   Pres.                    Temp. 
2016   (PST)    F      %     mph   deg.    mph     mb.     in.     W/m2     F   
------------------------------------------------------------------------------
 273    5:20   58.8    35    3.6   235      6.6  99999.0    0.00       0    62.3
 273    5:30   59.4    33    4.9   238      7.3  99999.0    0.00       0    62.3
 273    5:40   61.0    31    6.4   241      8.3  99999.0    0.00       0    62.3
 273    5:50   60.2    32    4.7   240      7.2  99999.0    0.00       1    62.2
 273    6:00   58.7    33    3.2   223      5.2  99999.0    0.00       4    62.2
 273    6:10   57.7    36    1.6   238      4.8  99999.0    0.00      10    62.1
 273    6:20   57.1    38    2.2   238      6.6  99999.0    0.00      32    62.1
 273    6:30   59.1    34    4.3   242      7.1  99999.0    0.00      71    62.0
 273    6:40   61.8    30    5.3   238      8.5  99999.0    0.00     111    62.0
 273    6:50   62.7    30    3.9   241      7.0  99999.0    0.00      92    62.0
 273    7:00   63.8    27    5.2   235      8.0  99999.0    0.00     104    61.9
 273    7:10   65.1    26    5.1   242      8.2  99999.0    0.00     228    61.9
 273    7:20   65.8    26    5.0   242      7.6  99999.0    0.00     151    61.8
 273    7:30   66.1    27    0.4   261      4.2  99999.0    0.00     185    61.8
 273    7:40   68.6    25    1.2    16      3.0  99999.0    0.01     322    61.8
 273    7:50   69.7    25    1.6    74      4.2  99999.0    0.00     330    61.7
 273    8:00   69.2    26    2.9    76      4.7  99999.0    0.00     385    61.7
 273    8:10   69.7    27    2.0    56      3.0  99999.0    0.00     395    61.7
 273    8:20   70.9    26    1.9    40      3.3  99999.0    0.00     531    61.7
 273    8:30   71.3    27    3.1    33      6.4  99999.0    0.00     537    61.7
 273    8:40   71.5    26    2.0    38      5.9  99999.0    0.00     368    61.7
 273    8:50   71.7    25    3.1    20      5.7  99999.0    0.00     405    61.7
 273    9:00   72.5    22    2.1    38      6.1  99999.0    0.00     541    61.7
 273    9:10   73.9    23    2.8    16      5.1  99999.0    0.00     564    61.8
 273    9:20   73.8    23    2.3     3      3.9  99999.0    0.00     576    61.8
 273    9:30   73.5    25    3.2    20      6.0  99999.0    0.00     592    61.9
 273    9:40   73.8    24    2.2    25      4.5  99999.0    0.00     618    61.9
 273    9:50   74.3    24    3.5    29      7.4  99999.0    0.00     642    62.0
 273   10:00   74.7    23    3.7    93      9.9  99999.0    0.00     670    62.0
 273   10:10   75.8    19    3.2   168      8.3  99999.0    0.00     699    62.1
 273   10:20   75.9    17    6.3   195     10.7  99999.0    0.00     374    62.2
 273   10:30   73.9    20    4.2   228      8.9  99999.0    0.00     165    62.3
 273   10:40   73.6    23    0.9   285      3.1  99999.0    0.00     467    62.4
 273   10:50   77.0    18    2.1   188      7.6  99999.0    0.00     854    62.5
 273   11:00   77.3    16    6.7   208     11.0  99999.0    0.00     796    62.6
 273   11:10   76.7    16    5.7   190     10.4  99999.0    0.00     318    62.7
 273   11:20   76.4    17    5.1   187      7.9  99999.0    0.00     488    62.7
 273   11:30   78.1    16    6.8   198     12.3  99999.0    0.00     830    62.8
 273   11:40   78.1    15    8.3   195     14.1  99999.0    0.00     826    62.9
 273   11:50   78.2    16    7.4   184     12.9  99999.0    0.00     788    63.0
 273   12:00   78.0    15    7.6   198     13.6  99999.0    0.00     754    63.1
 273   12:10   78.3    15    8.0   186     13.0  99999.0    0.00     827    63.2
 273   12:20   78.8    15    6.5   196     12.1  99999.0    0.00     826    63.3
 273   12:30   78.1    16    6.4   209     10.8  99999.0    0.00     806    63.4
 273   12:40   78.7    15    6.5   190     14.8  99999.0    0.00     809    63.5
 273   12:50   78.2    16    6.9   210     11.7  99999.0    0.00     782    63.6
 273   13:00   78.2    16    7.2   199     14.1  99999.0    0.00     641    63.7
 273   13:10   77.4    16    7.8   216     11.9  99999.0    0.00     530    63.8
 273   13:20   78.2    16    7.4   213     14.0  99999.0    0.00     558    63.9
 273   13:30   77.7    16    8.0   212     13.5  99999.0    0.00     431    64.0
 273   13:40   77.2    17    6.7   206     11.0  99999.0    0.00     234    64.0
 273   13:50   76.8    17    7.6   210     11.6  99999.0    0.00     259    64.1
 273   14:00   78.3    16    9.1   220     16.1  99999.0    0.00     645    64.2
 273   14:10   78.3    16    8.1   207     13.3  99999.0    0.00     514    64.3
 273   14:20   77.2    17    8.5   213     13.7  99999.0    0.00     249    64.3
 273   14:30   77.8    16    9.2   218     13.2  99999.0    0.00     570    64.4
 273   14:40   78.1    17    7.6   208     13.7  99999.0    0.00     544    64.4
 273   14:50   78.2    17    7.1   201     11.5  99999.0    0.00     514    64.5
 273   15:00   78.1    17    7.5   199     12.3  99999.0    0.00     487    64.5
 273   15:10   78.2    17    7.0   200     11.9  99999.0    0.00     457    64.5
 273   15:20   77.7    17    8.1   197     13.1  99999.0    0.00     428    64.6
 273   15:30   77.6    17    6.9   212     10.6  99999.0    0.00     403    64.6
 273   15:40   77.5    17    6.9   209     10.4  99999.0    0.00     371    64.6
 273   15:50   77.6    18    6.0   208      9.6  99999.0    0.00     340    64.7
 273   16:00   77.3    18    5.4   209      9.9  99999.0    0.00     309    64.7
 273   16:10   77.0    19    5.0   216     11.0  99999.0    0.00     278    64.7
 273   16:20   76.8    19    5.8   224     11.8  99999.0    0.00     249    64.7
 273   16:30   76.3    19    5.0   206      9.2  99999.0    0.00     219    64.7
 273   16:40   75.8    19    5.5   226      9.0  99999.0    0.00     184    64.7
 273   16:50   74.9    19    4.8   186      8.2  99999.0    0.00     145    64.7
 273   17:00   74.6    20    2.8   226      5.8  99999.0    0.00      62    64.7
 273   17:10   73.6    19    4.9   237      8.8  99999.0    0.00      34    64.7
 273   17:20   72.7    19    6.0   229      8.9  99999.0    0.00      16    64.7
 273   17:30   72.3    19    5.3   234      9.1  99999.0    0.00      12    64.7
 273   17:40   71.5    19    2.5   209      5.8  99999.0    0.00       7    64.7
 273   17:50   70.1    20    3.6   232      6.4  99999.0    0.00       4    64.7
 273   18:00   70.1    20    4.0   213      6.6  99999.0    0.00       1    64.7
 273   18:10   70.0    21    3.9   196      5.8  99999.0    0.00       1    64.6
 273   18:20   70.1    20    4.5   201      8.0  99999.0    0.00       0    64.6
 273   18:30   69.4    20    4.1   207      7.2  99999.0    0.00       0    64.5
 273   18:40   68.0    22    5.1   223      7.1  99999.0    0.00       0    64.5
 273   18:50   68.9    21    5.2   202      7.5  99999.0    0.00       0    64.5
 273   19:00   68.6    22    4.8   208      8.3  99999.0    0.00       0    64.4
 273   19:10   67.9    23    4.2   195      8.0  99999.0    0.00       0    64.3
 273   19:20   67.4    24    3.8   185      8.7  99999.0    0.00       0    64.3
 273   19:30   66.4    25    0.4   228      4.5  99999.0    0.00       0    64.2
 273   19:40   64.9    25    2.4   208      7.1  99999.0    0.00       0    64.2
 273   19:50   67.7    22    5.8   208      9.9  99999.0    0.00       0    64.1
 273   20:00   67.3    24    5.8   189      9.5  99999.0    0.00       0    64.0
 273   20:10   67.3    24    6.1   189      9.8  99999.0    0.00       0    64.0
 273   20:20   67.9    23    5.3   174      8.4  99999.0    0.00       0    63.9
 273   20:30   66.6    26    5.6   163      8.7  99999.0    0.00       0    63.9
 273   20:40   65.4    27    4.3   178      7.2  99999.0    0.00       0    63.8
 273   20:50   66.0    27    5.8   222     10.7  99999.0    0.00       0    63.8
 273   21:00   63.3    33    6.7   240     11.2  99999.0    0.00       0    63.7
 273   21:10   63.8    31    6.7   247     10.7  99999.0    0.00       0    63.6
 273   21:20   63.0    34    7.0   244      9.7  99999.0    0.00       0    63.6
 273   21:30   63.5    32    6.8   242     10.6  99999.0    0.00       0    63.5
 273   21:40   63.7    31    6.7   243      9.7  99999.0    0.00       0    63.4
 273   21:50   64.8    31    7.7   243     11.3  99999.0    0.00       0    63.4
 273   22:00   65.1    30    7.7   239     11.1  99999.0    0.00       0    63.3
 273   22:10   65.0    31    6.7   229      9.6  99999.0    0.00       0    63.2
 273   22:20   65.1    31    5.7   216      9.9  99999.0    0.00       0    63.1
 273   22:30   64.7    32    5.8   202      9.2  99999.0    0.00       0    63.0
 273   22:40   64.3    32    5.6   202      9.0  99999.0    0.00       0    63.0
 273   22:50   63.7    33    5.6   202      7.9  99999.0    0.00       0    62.9
 273   23:00   63.4    34    5.4   197      7.3  99999.0    0.00       0    62.8
 273   23:10   63.3    35    4.6   207      7.3  99999.0    0.00       0    62.7
 273   23:20   62.9    35    4.0   202      6.4  99999.0    0.00       0    62.7
 273   23:30   62.5    35    3.9   193      5.6  99999.0    0.00       0    62.6
 273   23:40   61.5    36    3.9   194      5.9  99999.0    0.00       0    62.5
 273   23:50   60.4    36    4.3   186      6.1  99999.0    0.00       0    62.5
 274    0:00   60.1    36    4.5   181      6.0  99999.0    0.00       0    62.4
 274    0:10   60.6    36    4.9   161      7.5  99999.0    0.00       0    62.3
 274    0:20   62.2    34    4.1   170      7.2  99999.0    0.00       0    62.3
 274    0:30   60.2    37    3.1   193      4.4  99999.0    0.00       0    62.2
 274    0:40   59.5    37    4.1   180      5.8  99999.0    0.00       0    62.2
 274    0:50   60.8    35    5.0   171      7.2  99999.0    0.00       0    62.1
 274    1:00   60.9    36    4.7   174      6.4  99999.0    0.00       0    62.1
 274    1:10   60.5    37    3.8   180      6.7  99999.0    0.00       0    62.0
 274    1:20   57.7    41    2.5   217      3.6  99999.0    0.00       0    62.0
 274    1:30   54.8    46    1.6   234      2.6  99999.0    0.00       0    61.9
 274    1:40   52.9    49    1.1   244      2.3  99999.0    0.00       0    61.8
 274    1:50   53.3    49    0.9   241      2.0  99999.0    0.00       0    61.8
 274    2:00   53.8    48    0.7   239      2.0  99999.0    0.00       0    61.7
 274    2:10   53.1    49    1.9   217      2.9  99999.0    0.00       0    61.7
 274    2:20   57.6    41    2.4   198      3.7  99999.0    0.00       0    61.6
 274    2:30   59.9    37    3.4   190      4.2  99999.0    0.00       0    61.6
 274    2:40   60.4    36    3.6   192      4.5  99999.0    0.00       0    61.5
 274    2:50   60.5    35    3.5   206      5.1  99999.0    0.00       0    61.5
 274    3:00   59.3    37    3.6   214      4.9  99999.0    0.00       0    61.4
 274    3:10   58.6    38    3.3   215      4.2  99999.0    0.00       0    61.4
 274    3:20   59.1    36    3.8   212      6.6  99999.0    0.00       0    61.3
 274    3:30   59.1    36    4.0   222      6.6  99999.0    0.00       0    61.2
 274    3:40   59.7    36    5.0   238      7.2  99999.0    0.00       0    61.2
 274    3:50   58.3    37    3.9   235      6.9  99999.0    0.00       0    61.1
 274    4:00   56.1    40    4.4   239      6.6  99999.0    0.00       0    61.1
 274    4:10   55.1    41    3.6   236      6.6  99999.0    0.00       0    61.0
 274    4:20   55.2    40    3.5   235      6.0  99999.0    0.00       0    61.0
 274    4:30   54.9    40    4.6   235      7.2  99999.0    0.00       0    60.9
 274    4:40   55.6    39    4.9   238      6.8  99999.0    0.00       0    60.9
 274    4:50   56.8    36    5.6   242      7.1  99999.0    0.00       0    60.8
 274    5:00   56.8    35    5.0   237      7.2  99999.0    0.00       0    60.8
 274    5:10   56.8    35    5.2   239      6.9  99999.0    0.00       0    60.7

Return to South Reno, Nevada graphs page.


Western Regional Climate Center,wrcc@dri.edu